Boys Town, Nebraska
Current Conditions -  °F | °C
As of 12:55 AM on Friday 19 Dec 2014 (Local Time) from KMLE Reporting Station
Overcast Overcast  
Wind Chill: 26°   Ceiling: 800
Heat Index: 31°   Visibility: 7mi
Dew Point: 28°   Wind: 6mph
Humidity: 88%   Direction: 180°S
Pressure: 30.24"   Gusts: NA
Location:  41.26°N, 96.13°W
Report Text: KMLE 190655Z AUTO 18005KT 7SM BKN008 OVC013 00/M02 A3024 RMK AO2 T10031021
Loading
Personal Weather Stations






























Interactive Weather Map New forecast layout! Learn more

10-Day Weather Forecast

Advertisements
Track Severe Weather on mobile